Time;durP1;ratioP1;P1;durP2;ratioP2;P2;SDS_P1;SDS_P2;PMS_P1;PMS_P2;Temp;Humidity;BMP_temperature;BMP_pressure;BME280_temperature;BME280_humidity;BME280_pressure;Samples;Min_cycle;Max_cycle;Signal;HPM_P1;HPM_P2
2022/05/17 00:01:39;;;;;;;;;;;;;;;37.70;20.99;100791.59;4419662;32;20335;-69
2022/05/17 00:04:05;;;;;;;;;;;;;;;38.21;20.43;100795.06;4421262;32;20306;-69
2022/05/17 00:06:31;;;;;;;;;;;;;;;37.68;20.84;100799.50;4421052;32;20756;-69
2022/05/17 00:08:57;;;;;;;;;;;;;;;37.46;20.97;100792.06;4417745;32;20424;-69
2022/05/17 00:11:24;;;;;;;;;;;;;;;37.55;20.78;100786.09;4421510;32;19953;-69
2022/05/17 00:13:49;;;;;;;;;;;;;;;37.87;20.57;100784.66;4421659;32;19993;-69
2022/05/17 00:16:15;;;;;;;;;;;;;;;38.03;20.34;100782.81;4419594;32;19953;-69
2022/05/17 00:18:41;;;;;;;;;;;;;;;37.86;20.56;100797.84;4422334;32;19999;-69
2022/05/17 00:21:06;;;;;;;;;;;;;;;37.88;20.57;100789.13;4422845;32;20002;-69
2022/05/17 00:23:32;;;;;;;;;;;;;;;37.83;20.54;100804.97;4420512;32;20385;-69
2022/05/17 00:25:58;;;;;;;;;;;;;;;37.77;20.62;100801.59;4421021;32;20042;-69
2022/05/17 00:28:24;;;;;;;;;;;;;;;37.97;20.40;100800.03;4422978;32;19993;-69
2022/05/17 00:30:50;;;;;;;;;;;;;;;38.22;20.17;100796.63;4422203;32;20390;-69
2022/05/17 00:33:16;;;;;;;;;;;;;;;38.26;20.14;100788.06;4420674;32;19972;-69
2022/05/17 00:35:45;;;;;;;;;;;;;;;38.07;20.32;100791.94;4420129;32;19953;-69
2022/05/17 00:38:10;;;;;;;;;;;;;;;37.67;20.75;100792.09;4420431;32;20394;-69
2022/05/17 00:40:36;;;;;;;;;;;;;;;37.57;20.77;100780.38;4420026;32;20016;-69
2022/05/17 00:43:01;;;;;;;;;;;;;;;37.77;20.36;100790.59;4423425;32;19968;-69
2022/05/17 00:45:27;;;;;;;;;;;;;;;37.96;20.43;100783.81;4421050;32;20031;-69
2022/05/17 00:48:04;;;;;;;;;;;;;;;37.57;20.63;100795.06;4419572;32;20000;-69
2022/05/17 00:50:32;;;;;;;;;;;;;;;37.56;20.68;100795.69;4421750;32;19988;-69
2022/05/17 00:52:59;;;;;;;;;;;;;;;37.51;20.74;100791.69;4418796;32;19981;-69
2022/05/17 01:00:39;;;;;;;;;;;;;;;37.76;20.51;100785.38;3961324;31;15746900;-69
2022/05/17 01:03:07;;;;;;;;;;;;;;;37.64;20.58;100778.66;4433236;32;20007;-69
2022/05/17 01:05:36;;;;;;;;;;;;;;;37.48;20.76;100780.44;4430825;32;19972;-69
2022/05/17 01:08:01;;;;;;;;;;;;;;;37.07;21.03;100778.94;4429662;32;19988;-69
2022/05/17 01:10:28;;;;;;;;;;;;;;;37.36;20.84;100794.28;4432407;32;19983;-69
2022/05/17 01:15:39;;;;;;;;;;;;;;;36.52;21.59;100791.78;4432280;32;20454;-69
2022/05/17 01:18:05;;;;;;;;;;;;;;;36.80;21.24;100802.69;4430011;32;20009;-68
2022/05/17 01:20:32;;;;;;;;;;;;;;;36.72;21.28;100795.44;4429012;32;19981;-68
2022/05/17 01:22:59;;;;;;;;;;;;;;;36.99;21.02;100775.44;4431526;32;20256;-68
2022/05/17 01:25:24;;;;;;;;;;;;;;;37.07;20.96;100773.84;4429531;32;20383;-68
2022/05/17 01:27:54;;;;;;;;;;;;;;;36.91;21.22;100783.66;4427234;32;20005;-68
2022/05/17 01:30:22;;;;;;;;;;;;;;;36.91;21.06;100775.63;4431628;32;20334;-68
2022/05/17 01:32:47;;;;;;;;;;;;;;;36.88;21.12;100782.75;4431110;32;20004;-68
2022/05/17 01:35:13;;;;;;;;;;;;;;;36.69;21.31;100784.94;4427662;32;20019;-68
2022/05/17 01:37:40;;;;;;;;;;;;;;;36.72;21.20;100786.63;4428753;32;20012;-68
2022/05/17 01:40:10;;;;;;;;;;;;;;;36.59;21.23;100787.16;4429149;32;20001;-68
2022/05/17 01:42:36;;;;;;;;;;;;;;;36.54;21.30;100788.22;4426938;32;19972;-68
2022/05/17 01:45:03;;;;;;;;;;;;;;;36.40;21.41;100787.16;4431365;32;19993;-68
2022/05/17 01:47:29;;;;;;;;;;;;;;;36.50;21.24;100779.91;4428832;32;19997;-68
2022/05/17 01:49:54;;;;;;;;;;;;;;;36.39;21.42;100783.47;4429980;32;19994;-68
2022/05/17 01:52:20;;;;;;;;;;;;;;;36.59;21.27;100787.16;4429077;32;20297;-68
2022/05/17 01:54:46;;;;;;;;;;;;;;;36.52;21.39;100785.91;4429053;32;20380;-68
2022/05/17 01:57:11;;;;;;;;;;;;;;;36.53;21.32;100784.50;4428728;32;19993;-68
2022/05/17 01:59:37;;;;;;;;;;;;;;;36.09;21.71;100789.97;4429621;32;20308;-68
2022/05/17 02:02:03;;;;;;;;;;;;;;;36.26;21.49;100786.88;4430641;32;20134;-69
2022/05/17 02:04:28;;;;;;;;;;;;;;;36.47;21.32;100784.06;4430393;32;19952;-69
2022/05/17 02:06:54;;;;;;;;;;;;;;;36.30;21.49;100786.41;4430431;32;20772;-69
2022/05/17 02:09:20;;;;;;;;;;;;;;;36.28;21.41;100783.34;4430653;32;20016;-69
2022/05/17 02:11:46;;;;;;;;;;;;;;;36.33;21.43;100788.12;4418776;32;19957;-69
2022/05/17 02:14:12;;;;;;;;;;;;;;;36.45;21.17;100777.28;4418414;32;19972;-69
2022/05/17 02:16:38;;;;;;;;;;;;;;;36.58;21.12;100788.53;4416533;32;20001;-69
2022/05/17 02:19:06;;;;;;;;;;;;;;;36.47;21.17;100787.00;4419991;32;19968;-69
2022/05/17 02:21:33;;;;;;;;;;;;;;;36.63;21.05;100787.44;4418039;32;19958;-69
2022/05/17 02:23:58;;;;;;;;;;;;;;;36.37;21.25;100786.25;4419383;32;20347;-69
2022/05/17 02:26:24;;;;;;;;;;;;;;;36.43;21.15;100788.84;4419853;32;20619;-69
2022/05/17 02:28:49;;;;;;;;;;;;;;;36.34;21.10;100792.56;4419935;32;20038;-69
2022/05/17 02:31:16;;;;;;;;;;;;;;;36.39;21.08;100788.56;4418355;32;19961;-69
2022/05/17 02:33:41;;;;;;;;;;;;;;;36.28;21.11;100789.97;4418444;32;20232;-69
2022/05/17 02:36:07;;;;;;;;;;;;;;;36.17;21.16;100787.66;4418635;32;20307;-69
2022/05/17 02:38:33;;;;;;;;;;;;;;;36.16;21.29;100792.72;4415586;32;19993;-69
2022/05/17 02:40:58;;;;;;;;;;;;;;;36.14;21.32;100788.88;4418696;32;19984;-69
2022/05/17 02:43:24;;;;;;;;;;;;;;;36.26;21.26;100791.97;4420893;32;20327;-69
2022/05/17 02:45:50;;;;;;;;;;;;;;;36.22;21.27;100793.19;4418481;32;20016;-69
2022/05/17 02:48:16;;;;;;;;;;;;;;;36.25;21.19;100785.31;4416684;32;20036;-69
2022/05/17 02:50:41;;;;;;;;;;;;;;;36.28;21.23;100795.84;4417002;32;21155;-69
2022/05/17 02:53:06;;;;;;;;;;;;;;;36.17;21.24;100791.34;4417766;32;19990;-69
2022/05/17 02:55:32;;;;;;;;;;;;;;;35.94;21.46;100791.06;4418396;32;20004;-69
2022/05/17 02:57:58;;;;;;;;;;;;;;;35.88;21.57;100783.94;4419819;32;20015;-69
2022/05/17 03:00:24;;;;;;;;;;;;;;;36.09;21.35;100795.81;4419593;32;20354;-69
2022/05/17 03:02:50;;;;;;;;;;;;;;;36.10;21.30;100786.41;4417028;32;20005;-69
2022/05/17 03:05:19;;;;;;;;;;;;;;;36.21;21.20;100793.81;4418107;32;19972;-69
2022/05/17 03:07:45;;;;;;;;;;;;;;;36.16;21.16;100791.94;4419053;32;19961;-69
2022/05/17 03:10:11;;;;;;;;;;;;;;;36.02;21.26;100796.75;4419791;32;20359;-69
2022/05/17 03:12:37;;;;;;;;;;;;;;;35.95;21.33;100785.94;4419915;32;19966;-69
2022/05/17 03:15:03;;;;;;;;;;;;;;;35.96;21.39;100790.44;4421474;32;20265;-69
2022/05/17 03:17:29;;;;;;;;;;;;;;;35.89;21.40;100794.28;4420561;32;19989;-69
2022/05/17 03:19:54;;;;;;;;;;;;;;;35.98;21.34;100790.56;4416806;32;20502;-69
2022/05/17 03:22:20;;;;;;;;;;;;;;;35.89;21.30;100786.25;4419190;32;20028;-69
2022/05/17 03:24:45;;;;;;;;;;;;;;;35.97;21.33;100792.75;4420366;32;19962;-69
2022/05/17 03:27:11;;;;;;;;;;;;;;;35.97;21.38;100783.97;4418029;32;19968;-69
2022/05/17 03:29:37;;;;;;;;;;;;;;;36.11;21.13;100793.81;4420650;32;20002;-69
2022/05/17 03:32:03;;;;;;;;;;;;;;;35.83;21.36;100785.78;4417522;32;19985;-69
2022/05/17 03:34:29;;;;;;;;;;;;;;;35.75;21.49;100791.03;4417193;32;20994;-69
2022/05/17 03:36:54;;;;;;;;;;;;;;;35.72;21.51;100798.09;4418738;32;19976;-69
2022/05/17 03:39:20;;;;;;;;;;;;;;;35.74;21.43;100795.31;4420985;32;20035;-69
2022/05/17 03:41:45;;;;;;;;;;;;;;;35.65;21.66;100793.16;4416469;32;19990;-69
2022/05/17 03:44:11;;;;;;;;;;;;;;;35.57;21.70;100801.31;4415768;32;19976;-69
2022/05/17 03:46:37;;;;;;;;;;;;;;;35.59;21.66;100804.38;4418735;32;20020;-69
2022/05/17 03:49:03;;;;;;;;;;;;;;;35.80;21.54;100804.59;4417243;32;21066;-68
2022/05/17 03:51:28;;;;;;;;;;;;;;;35.85;21.44;100803.53;4416671;32;20354;-68
2022/05/17 03:53:54;;;;;;;;;;;;;;;35.80;21.41;100798.75;4415680;32;20000;-69
2022/05/17 03:56:20;;;;;;;;;;;;;;;35.90;21.28;100805.41;4417349;32;20582;-69
2022/05/17 03:58:46;;;;;;;;;;;;;;;35.90;21.30;100805.41;4416297;32;20445;-69
2022/05/17 04:01:12;;;;;;;;;;;;;;;35.58;21.36;100807.91;4419164;32;20001;-69
2022/05/17 04:03:38;;;;;;;;;;;;;;;35.62;21.53;100809.00;4416495;32;19989;-69
2022/05/17 04:06:04;;;;;;;;;;;;;;;35.90;21.33;100808.31;4418760;32;19975;-69
2022/05/17 04:08:29;;;;;;;;;;;;;;;35.78;21.51;100810.28;4419603;32;19989;-69
2022/05/17 04:10:55;;;;;;;;;;;;;;;35.70;21.39;100809.66;4419728;32;19985;-69
2022/05/17 04:13:26;;;;;;;;;;;;;;;35.77;21.62;100802.87;4418992;32;19998;-69
2022/05/17 04:15:52;;;;;;;;;;;;;;;35.97;21.47;100800.75;4420452;32;19999;-69
2022/05/17 04:18:17;;;;;;;;;;;;;;;36.11;21.41;100802.59;4415307;32;20004;-69
2022/05/17 04:20:43;;;;;;;;;;;;;;;36.42;21.18;100811.56;4419586;32;20306;-69
2022/05/17 04:23:09;;;;;;;;;;;;;;;36.39;21.37;100806.94;4417774;32;19957;-69
2022/05/17 04:25:34;;;;;;;;;;;;;;;36.60;21.17;100807.06;4419921;32;20358;-69
2022/05/17 04:28:00;;;;;;;;;;;;;;;36.34;21.59;100810.16;4418023;32;19950;-69
2022/05/17 04:30:26;;;;;;;;;;;;;;;36.45;21.54;100807.38;4418158;32;19999;-69
2022/05/17 04:32:51;;;;;;;;;;;;;;;36.63;21.40;100814.59;4417188;32;20001;-69
2022/05/17 04:35:18;;;;;;;;;;;;;;;36.65;21.22;100811.81;4418020;32;19986;-69
2022/05/17 04:37:43;;;;;;;;;;;;;;;36.83;20.93;100810.25;4416933;32;19961;-69
2022/05/17 04:40:10;;;;;;;;;;;;;;;37.13;20.83;100815.38;4419917;32;20636;-69
2022/05/17 04:42:36;;;;;;;;;;;;;;;37.19;20.94;100820.91;4416707;32;20037;-69
2022/05/17 04:45:03;;;;;;;;;;;;;;;37.13;20.85;100817.53;4418818;32;20434;-69
2022/05/17 04:47:29;;;;;;;;;;;;;;;37.22;20.79;100822.63;4419394;32;19992;-69
2022/05/17 04:49:55;;;;;;;;;;;;;;;37.11;20.77;100820.31;4418781;32;20658;-69
2022/05/17 04:52:23;;;;;;;;;;;;;;;37.13;20.85;100821.25;4418072;32;19991;-69
2022/05/17 04:54:50;;;;;;;;;;;;;;;37.10;20.90;100822.50;4419820;32;19969;-69
2022/05/17 04:57:17;;;;;;;;;;;;;;;37.52;20.62;100828.47;4417705;32;19962;-69
2022/05/17 04:59:42;;;;;;;;;;;;;;;37.10;21.04;100824.66;4414432;32;19994;-69
2022/05/17 05:02:08;;;;;;;;;;;;;;;37.25;20.86;100824.31;4417381;32;19954;-69
2022/05/17 05:04:33;;;;;;;;;;;;;;;37.36;20.90;100827.34;4419730;32;20020;-69
2022/05/17 05:07:00;;;;;;;;;;;;;;;37.55;20.80;100823.53;4415276;32;20070;-69
2022/05/17 05:09:26;;;;;;;;;;;;;;;37.73;20.45;100825.59;4418369;32;19984;-69
2022/05/17 05:11:51;;;;;;;;;;;;;;;37.68;20.51;100817.13;4418350;32;20012;-69
2022/05/17 05:14:17;;;;;;;;;;;;;;;37.39;20.91;100823.16;4416225;32;19992;-69
2022/05/17 05:16:42;;;;;;;;;;;;;;;37.72;20.65;100829.16;4416125;32;19992;-69
2022/05/17 05:19:08;;;;;;;;;;;;;;;37.49;20.61;100826.78;4418597;32;19949;-69
2022/05/17 05:21:34;;;;;;;;;;;;;;;37.91;20.36;100834.88;4417878;32;19985;-69
2022/05/17 05:24:00;;;;;;;;;;;;;;;38.09;20.18;100821.47;4417098;32;19989;-69
2022/05/17 05:26:26;;;;;;;;;;;;;;;38.14;20.26;100829.19;4415497;32;19957;-70
2022/05/17 05:28:51;;;;;;;;;;;;;;;38.31;20.00;100831.78;4414065;32;20006;-69
2022/05/17 05:31:17;;;;;;;;;;;;;;;38.38;19.87;100830.81;4416797;32;20365;-69
2022/05/17 05:33:43;;;;;;;;;;;;;;;38.49;19.73;100830.06;4414904;32;19965;-69
2022/05/17 05:36:09;;;;;;;;;;;;;;;38.74;19.53;100826.59;4416748;32;20009;-69
2022/05/17 05:38:34;;;;;;;;;;;;;;;38.45;19.73;100826.87;4419119;32;19965;-69
2022/05/17 05:41:00;;;;;;;;;;;;;;;37.92;19.90;100830.56;4418497;32;20001;-70
2022/05/17 05:43:26;;;;;;;;;;;;;;;38.19;19.92;100828.03;4418256;32;19961;-70
2022/05/17 05:45:52;;;;;;;;;;;;;;;38.11;19.85;100826.72;4419597;32;19953;-70
2022/05/17 05:48:18;;;;;;;;;;;;;;;38.62;19.31;100835.38;4413601;32;19991;-70
2022/05/17 05:50:43;;;;;;;;;;;;;;;38.53;19.53;100847.25;4420210;32;19964;-70
2022/05/17 05:53:12;;;;;;;;;;;;;;;38.72;19.20;100850.78;4418821;32;20414;-70
2022/05/17 05:55:38;;;;;;;;;;;;;;;38.65;19.10;100853.94;4419923;32;19971;-70
2022/05/17 05:58:04;;;;;;;;;;;;;;;37.84;19.94;100871.13;4418141;32;21057;-70
2022/05/17 06:00:30;;;;;;;;;;;;;;;38.44;19.62;100859.84;4422951;32;20006;-70
2022/05/17 06:02:56;;;;;;;;;;;;;;;37.85;20.03;100866.78;4420210;32;20315;-70
2022/05/17 06:05:22;;;;;;;;;;;;;;;38.25;19.73;100866.66;4416854;32;19971;-70
2022/05/17 06:07:49;;;;;;;;;;;;;;;37.12;20.68;100862.97;4419940;32;20084;-70
2022/05/17 06:10:15;;;;;;;;;;;;;;;36.58;21.25;100865.53;4418855;32;20016;-70
2022/05/17 06:12:41;;;;;;;;;;;;;;;36.58;21.28;100856.75;4416944;32;19991;-70
2022/05/17 06:15:08;;;;;;;;;;;;;;;36.19;21.56;100861.84;4419315;32;20324;-70
2022/05/17 06:17:33;;;;;;;;;;;;;;;36.07;21.60;100863.06;4420675;32;19989;-70
2022/05/17 06:20:00;;;;;;;;;;;;;;;36.15;21.50;100864.47;4417153;32;20378;-70
2022/05/17 06:22:26;;;;;;;;;;;;;;;36.15;21.42;100861.53;4420721;32;20027;-70
2022/05/17 06:24:52;;;;;;;;;;;;;;;35.36;22.51;100858.88;4416721;32;19957;-69
2022/05/17 06:27:18;;;;;;;;;;;;;;;35.62;22.32;100869.75;4420138;32;20026;-69
2022/05/17 06:29:43;;;;;;;;;;;;;;;36.76;21.27;100864.00;4421214;32;19993;-70
2022/05/17 06:32:09;;;;;;;;;;;;;;;36.25;21.69;100855.66;4419622;32;20006;-69
2022/05/17 06:34:35;;;;;;;;;;;;;;;35.79;22.05;100870.41;4412792;32;20008;-69
2022/05/17 06:37:00;;;;;;;;;;;;;;;35.86;21.92;100868.75;4413499;32;20004;-69
2022/05/17 06:39:26;;;;;;;;;;;;;;;35.85;22.04;100867.97;4418001;32;20568;-69
2022/05/17 06:41:53;;;;;;;;;;;;;;;35.39;22.60;100863.50;4411986;32;19957;-70
2022/05/17 06:44:19;;;;;;;;;;;;;;;36.07;21.80;100868.91;4411758;32;20413;-69
2022/05/17 06:46:44;;;;;;;;;;;;;;;35.21;22.84;100873.72;4408518;32;19992;-70
2022/05/17 06:49:10;;;;;;;;;;;;;;;34.94;23.08;100872.97;4411373;32;19968;-70
2022/05/17 06:51:37;;;;;;;;;;;;;;;35.26;22.81;100881.44;4411204;32;20213;-70
2022/05/17 06:54:03;;;;;;;;;;;;;;;36.34;21.68;100874.66;4416686;32;19953;-70
2022/05/17 06:56:28;;;;;;;;;;;;;;;35.73;22.32;100877.91;4410863;32;20052;-70
2022/05/17 06:58:55;;;;;;;;;;;;;;;36.65;21.50;100876.31;4409278;32;19997;-70
2022/05/17 07:01:21;;;;;;;;;;;;;;;36.64;21.39;100879.88;4412545;32;20012;-70
2022/05/17 07:03:49;;;;;;;;;;;;;;;37.21;20.92;100885.66;4412481;32;20368;-70
2022/05/17 07:06:15;;;;;;;;;;;;;;;36.23;21.71;100885.56;4413558;32;20309;-70
2022/05/17 07:08:41;;;;;;;;;;;;;;;36.34;21.83;100881.28;4412068;32;20025;-70
2022/05/17 07:13:52;;;;;;;;;;;;;;;37.17;20.96;100876.53;4410125;32;19990;-70
2022/05/17 07:16:18;;;;;;;;;;;;;;;36.85;21.22;100877.09;4409701;32;20260;-70
2022/05/17 07:18:43;;;;;;;;;;;;;;;36.70;21.26;100862.75;4413880;32;20564;-70
2022/05/17 07:21:11;;;;;;;;;;;;;;;36.87;21.35;100871.37;4412414;32;19997;-70
2022/05/17 07:23:38;;;;;;;;;;;;;;;37.76;20.57;100874.28;4411221;32;20071;-70
2022/05/17 07:26:03;;;;;;;;;;;;;;;37.87;20.41;100873.59;4410196;32;20015;-70
2022/05/17 07:28:29;;;;;;;;;;;;;;;37.79;20.32;100875.19;4416289;32;19984;-70
2022/05/17 07:30:54;;;;;;;;;;;;;;;37.43;20.50;100878.47;4414066;32;20134;-70
2022/05/17 07:33:20;;;;;;;;;;;;;;;37.13;21.00;100885.81;4407865;32;20307;-70
2022/05/17 07:35:47;;;;;;;;;;;;;;;37.30;20.92;100879.00;4409319;32;19993;-70
2022/05/17 07:38:13;;;;;;;;;;;;;;;38.45;19.67;100881.97;4412060;32;20008;-70
2022/05/17 07:40:39;;;;;;;;;;;;;;;38.14;19.86;100879.16;4411835;32;20027;-70
2022/05/17 07:43:04;;;;;;;;;;;;;;;38.48;19.48;100886.59;4414133;32;19996;-70
2022/05/17 07:45:30;;;;;;;;;;;;;;;38.26;19.71;100888.03;4413337;32;20019;-71
2022/05/17 07:47:55;;;;;;;;;;;;;;;39.17;19.12;100895.69;4411290;32;19966;-71
2022/05/17 07:50:21;;;;;;;;;;;;;;;39.40;18.89;100899.44;4408509;32;20013;-72
2022/05/17 07:52:47;;;;;;;;;;;;;;;39.18;18.86;100894.28;4413312;32;19973;-71
2022/05/17 07:55:13;;;;;;;;;;;;;;;39.08;18.62;100897.31;4409741;32;20080;-72
2022/05/17 07:57:39;;;;;;;;;;;;;;;39.79;18.49;100899.69;4407823;32;19996;-72
2022/05/17 08:00:05;;;;;;;;;;;;;;;39.47;18.74;100904.31;4411510;32;19995;-72
2022/05/17 08:02:32;;;;;;;;;;;;;;;39.59;18.62;100886.62;4411770;32;20304;-71
2022/05/17 08:04:58;;;;;;;;;;;;;;;39.09;18.84;100893.00;4409389;32;19997;-71
2022/05/17 08:07:24;;;;;;;;;;;;;;;39.69;18.37;100896.88;4416810;32;19983;-71
2022/05/17 08:09:50;;;;;;;;;;;;;;;39.72;18.20;100897.00;4411323;32;20374;-71
2022/05/17 08:12:15;;;;;;;;;;;;;;;40.39;17.62;100897.53;4408843;32;20342;-71
2022/05/17 08:14:41;;;;;;;;;;;;;;;39.64;18.06;100900.97;4408107;32;19996;-71
2022/05/17 08:17:08;;;;;;;;;;;;;;;39.84;17.99;100894.84;4413642;32;19953;-71
2022/05/17 08:19:35;;;;;;;;;;;;;;;38.98;18.82;100893.72;4411311;32;20019;-71
2022/05/17 08:22:01;;;;;;;;;;;;;;;39.47;18.15;100886.62;4415940;32;21324;-71
2022/05/17 08:24:28;;;;;;;;;;;;;;;40.28;17.39;100891.69;4412347;32;19992;-71
2022/05/17 08:29:39;;;;;;;;;;;;;;;40.26;17.49;100876.81;4410633;32;19964;-70
2022/05/17 08:34:50;;;;;;;;;;;;;;;40.05;17.40;100894.66;4412037;32;19969;-71
2022/05/17 08:37:15;;;;;;;;;;;;;;;39.67;17.69;100893.78;4410851;32;19987;-71
2022/05/17 08:39:41;;;;;;;;;;;;;;;40.11;17.47;100884.00;4406564;32;20329;-72
2022/05/17 08:42:19;;;;;;;;;;;;;;;40.21;17.20;100881.66;4405752;32;20541;-71
2022/05/17 08:44:49;;;;;;;;;;;;;;;40.34;17.04;100878.06;4413641;32;19989;-70
2022/05/17 08:47:18;;;;;;;;;;;;;;;40.58;16.87;100887.59;4411568;32;20361;-70
2022/05/17 08:52:24;;;;;;;;;;;;;;;42.71;15.58;100874.34;3965207;32;15723588;-70
2022/05/17 08:57:42;;;;;;;;;;;;;;;41.66;15.73;100876.12;3954557;31;15723116;-72
2022/05/17 09:00:10;;;;;;;;;;;;;;;41.66;15.73;100876.12;4439172;32;19976;-71
2022/05/17 09:08:11;;;;;;;;;;;;;;;41.86;15.90;100871.28;3945178;32;15724517;-71
2022/05/17 09:10:39;;;;;;;;;;;;;;;41.86;15.90;100871.28;4417454;32;20038;-72
2022/05/17 09:13:08;;;;;;;;;;;;;;;41.94;15.81;100865.84;4418157;32;19988;-71
2022/05/17 09:15:34;;;;;;;;;;;;;;;42.62;15.33;100872.38;4425228;32;19958;-71
2022/05/17 09:18:03;;;;;;;;;;;;;;;42.56;15.37;100863.19;4419807;32;20729;-72
2022/05/17 09:20:32;;;;;;;;;;;;;;;42.80;15.26;100872.53;4420432;32;19960;-72
2022/05/17 09:22:58;;;;;;;;;;;;;;;42.98;14.99;100867.50;4420613;32;20407;-72
2022/05/17 09:25:27;;;;;;;;;;;;;;;42.26;15.45;100882.31;4417179;32;20445;-71
2022/05/17 09:27:53;;;;;;;;;;;;;;;41.76;15.69;100873.72;4417612;32;20434;-72
2022/05/17 09:33:01;;;;;;;;;;;;;;;43.44;14.72;100854.94;3947724;32;15724583;-71
2022/05/17 09:35:27;;;;;;;;;;;;;;;43.44;14.72;100854.94;4409950;32;19977;-71
2022/05/17 09:38:12;;;;;;;;;;;;;;;42.87;15.11;100848.47;4425013;32;19991;-71
2022/05/17 09:40:57;;;;;;;;;;;;;;;42.79;15.39;100856.94;4419740;32;20004;-71
2022/05/17 09:43:33;;;;;;;;;;;;;;;43.83;14.69;100854.50;4419146;32;20462;-69
2022/05/17 09:46:08;;;;;;;;;;;;;;;42.92;15.49;100852.41;4423082;32;20015;-70
2022/05/17 09:54:08;;;;;;;;;;;;;;;43.06;15.35;100850.09;4427448;32;20000;-71
2022/05/17 09:56:33;;;;;;;;;;;;;;;43.95;14.95;100858.78;4424552;32;20453;-70
2022/05/17 09:58:59;;;;;;;;;;;;;;;44.47;14.72;100852.19;4428551;32;20011;-70
2022/05/17 10:01:36;;;;;;;;;;;;;;;44.59;14.53;100849.72;4427371;32;20446;-71
2022/05/17 10:04:07;;;;;;;;;;;;;;;45.01;14.15;100853.72;4425159;32;20712;-71
2022/05/17 10:06:35;;;;;;;;;;;;;;;45.75;13.71;100853.66;4421718;32;20365;-71
2022/05/17 10:14:24;;;;;;;;;;;;;;;46.77;13.17;100837.91;3960994;31;15718332;-72
2022/05/17 10:16:52;;;;;;;;;;;;;;;46.77;13.17;100837.91;4431272;32;19973;-71
2022/05/17 10:24:57;;;;;;;;;;;;;;;46.81;12.76;100846.97;3950150;32;15738581;-71
2022/05/17 10:27:30;;;;;;;;;;;;;;;46.81;12.76;100846.97;4419581;32;20376;-73
2022/05/17 10:29:58;;;;;;;;;;;;;;;47.56;12.21;100833.72;4422434;32;19961;-71
2022/05/17 10:32:34;;;;;;;;;;;;;;;47.75;12.06;100820.06;4418479;32;20027;-71
2022/05/17 10:37:44;;;;;;;;;;;;;;;47.16;12.19;100810.81;3946796;32;15729298;-70
2022/05/17 10:40:12;;;;;;;;;;;;;;;47.16;12.19;100810.81;4420414;32;20448;-70
2022/05/17 10:42:38;;;;;;;;;;;;;;;47.15;12.11;100812.28;4422407;32;19965;-71
2022/05/17 10:45:05;;;;;;;;;;;;;;;47.45;11.96;100805.03;4421541;32;20588;-73
2022/05/17 10:47:46;;;;;;;;;;;;;;;47.66;12.08;100810.13;4420319;32;20009;-71
2022/05/17 10:50:22;;;;;;;;;;;;;;;47.16;12.21;100811.59;4419198;32;20435;-71
2022/05/17 10:52:55;;;;;;;;;;;;;;;46.88;12.33;100804.00;4419733;32;19996;-72
2022/05/17 10:58:06;;;;;;;;;;;;;;;45.15;13.11;100794.84;3944420;32;15758655;-72
2022/05/17 11:00:34;;;;;;;;;;;;;;;45.15;13.11;100794.84;4425613;32;20061;-71
2022/05/17 11:03:20;;;;;;;;;;;;;;;44.87;13.32;100790.00;4428517;32;20012;-70
2022/05/17 11:08:42;;;;;;;;;;;;;;;46.37;12.65;100778.50;3943886;32;15732031;-71
2022/05/17 11:13:58;;;;;;;;;;;;;;;47.51;12.17;100774.62;3956402;31;15720128;-72
2022/05/17 11:19:09;;;;;;;;;;;;;;;47.50;11.87;100761.16;3947997;32;15725312;-72
2022/05/17 11:29:34;;;;;;;;;;;;;;;46.38;12.52;100762.16;3943342;32;15725023;-70
2022/05/17 11:34:40;;;;;;;;;;;;;;;45.29;13.31;100741.87;3942264;32;15722532;-72
2022/05/17 11:37:09;;;;;;;;;;;;;;;45.29;13.31;100741.87;4423748;32;20446;-72
2022/05/17 11:44:46;;;;;;;;;;;;;;;45.33;13.62;100762.84;3941113;32;15722539;-72
2022/05/17 11:47:27;;;;;;;;;;;;;;;45.33;13.62;100762.84;4421232;32;20442;-72
2022/05/17 11:49:52;;;;;;;;;;;;;;;46.28;13.03;100743.19;4417405;32;20893;-71
2022/05/17 11:52:24;;;;;;;;;;;;;;;47.46;12.44;100746.91;4418186;32;20034;-71
2022/05/17 11:54:51;;;;;;;;;;;;;;;47.46;12.32;100749.13;4417226;32;19956;-72
2022/05/17 11:59:53;;;;;;;;;;;;;;;48.76;11.69;100737.63;3948476;31;15718602;-71
2022/05/17 12:02:43;;;;;;;;;;;;;;;48.76;11.69;100737.63;4400074;32;20009;-72
2022/05/17 12:05:09;;;;;;;;;;;;;;;48.23;11.94;100734.81;4416683;32;20041;-72
2022/05/17 12:07:35;;;;;;;;;;;;;;;48.51;11.78;100734.75;4415789;32;20035;-72
2022/05/17 12:10:19;;;;;;;;;;;;;;;49.07;11.37;100727.84;4416822;32;20068;-73
2022/05/17 12:13:02;;;;;;;;;;;;;;;47.63;12.04;100719.06;4413249;32;20073;-72
2022/05/17 12:21:02;;;;;;;;;;;;;;;48.51;11.69;100716.81;3953768;31;15717880;-73
2022/05/17 12:28:42;;;;;;;;;;;;;;;46.43;13.14;100706.47;3947557;32;15723378;-72
2022/05/17 12:31:09;;;;;;;;;;;;;;;45.95;13.37;100708.59;4422651;32;19989;-72
2022/05/17 12:33:36;;;;;;;;;;;;;;;45.78;13.32;100715.47;4421625;32;20001;-72
2022/05/17 12:44:32;;;;;;;;;;;;;;;46.59;12.61;100718.19;4414864;32;20020;-73
2022/05/17 12:46:58;;;;;;;;;;;;;;;46.38;12.78;100720.47;4416769;32;19977;-73
2022/05/17 12:49:26;;;;;;;;;;;;;;;46.67;12.65;100709.47;4416317;32;20062;-73
2022/05/17 12:51:54;;;;;;;;;;;;;;;47.61;12.14;100713.06;4414318;32;20001;-71
2022/05/17 12:54:23;;;;;;;;;;;;;;;46.21;12.70;100715.47;4413800;32;20482;-72
2022/05/17 12:56:48;;;;;;;;;;;;;;;46.18;12.49;100713.88;4406564;32;20037;-71
2022/05/17 12:59:22;;;;;;;;;;;;;;;46.52;12.52;100707.53;4412612;32;20008;-72
2022/05/17 13:01:53;;;;;;;;;;;;;;;47.07;12.05;100698.78;4407670;32;20011;-72
2022/05/17 13:04:24;;;;;;;;;;;;;;;47.70;11.71;100699.84;4411353;32;20040;-73
2022/05/17 13:06:51;;;;;;;;;;;;;;;48.63;11.20;100699.97;4407139;32;20081;-72
2022/05/17 13:09:19;;;;;;;;;;;;;;;49.55;10.58;100701.91;4409522;32;20024;-72
2022/05/17 13:11:45;;;;;;;;;;;;;;;48.27;11.20;100701.34;4408272;32;19993;-72
2022/05/17 13:14:22;;;;;;;;;;;;;;;46.68;12.17;100687.94;4406751;32;19990;-72
2022/05/17 13:16:49;;;;;;;;;;;;;;;48.03;11.44;100692.53;4414251;32;20056;-73
2022/05/17 13:19:16;;;;;;;;;;;;;;;48.05;11.52;100695.56;4413021;32;20583;-72
2022/05/17 13:21:45;;;;;;;;;;;;;;;47.84;11.59;100687.53;4407974;32;20008;-72
2022/05/17 13:24:24;;;;;;;;;;;;;;;47.07;12.03;100675.72;4415475;32;19997;-72
2022/05/17 13:26:49;;;;;;;;;;;;;;;46.21;12.45;100684.94;4417683;32;19987;-72
2022/05/17 13:31:55;;;;;;;;;;;;;;;47.31;11.97;100678.63;3946264;32;15726635;-72
2022/05/17 13:34:25;;;;;;;;;;;;;;;47.31;11.97;100678.63;4424478;32;19989;-72
2022/05/17 13:36:59;;;;;;;;;;;;;;;47.06;11.93;100676.41;4422465;32;20538;-72
2022/05/17 13:39:29;;;;;;;;;;;;;;;46.81;12.20;100674.16;4420468;32;21115;-72
2022/05/17 13:41:55;;;;;;;;;;;;;;;47.26;11.94;100671.06;4422332;32;19999;-72
2022/05/17 13:44:29;;;;;;;;;;;;;;;47.38;11.82;100666.19;4419141;32;19981;-73
2022/05/17 13:46:55;;;;;;;;;;;;;;;46.57;12.54;100667.47;4409604;32;20556;-72
2022/05/17 13:52:00;;;;;;;;;;;;;;;47.64;12.05;100666.91;3945971;32;15726608;-73
2022/05/17 13:54:31;;;;;;;;;;;;;;;47.64;12.05;100666.91;4418851;32;19993;-73
2022/05/17 13:59:42;;;;;;;;;;;;;;;47.61;12.23;100649.66;3946022;32;15724383;-72
2022/05/17 14:02:29;;;;;;;;;;;;;;;47.55;12.32;100655.47;4424384;32;19967;-73
2022/05/17 14:05:05;;;;;;;;;;;;;;;48.31;11.75;100651.44;4426297;32;20009;-73
2022/05/17 14:07:32;;;;;;;;;;;;;;;48.50;11.53;100652.59;4429067;32;20022;-72
2022/05/17 14:13:00;;;;;;;;;;;;;;;49.91;10.82;100651.69;3942685;32;15725428;-71
2022/05/17 14:15:27;;;;;;;;;;;;;;;49.91;10.82;100651.69;4398691;32;19972;-72
2022/05/17 14:17:53;;;;;;;;;;;;;;;49.74;10.65;100652.91;4402623;32;20060;-72
2022/05/17 14:20:18;;;;;;;;;;;;;;;51.01;9.74;100645.84;4401055;32;20001;-72
2022/05/17 14:22:45;;;;;;;;;;;;;;;52.17;9.20;100637.19;4414782;32;20341;-71
2022/05/17 14:25:10;;;;;;;;;;;;;;;51.29;9.68;100643.13;4416350;32;21044;-71